Time;durP1;ratioP1;P1;durP2;ratioP2;P2;SDS_P1;SDS_P2;PMS_P1;PMS_P2;Temp;Humidity;BMP_temperature;BMP_pressure;BME280_temperature;BME280_humidity;BME280_pressure;Samples;Min_cycle;Max_cycle;Signal;HPM_P1;HPM_P2
2021/07/07 00:01:16;;;;;;;5.17;1.65;;;;;;;21.25;79.79;99564.28;1702271;82;21071;-55
2021/07/07 00:03:42;;;;;;;8.23;1.75;;;;;;;21.26;79.72;99570.98;1704028;82;21009;-55
2021/07/07 00:06:08;;;;;;;1.72;1.40;;;;;;;21.26;79.71;99567.37;1701675;82;21431;-55
2021/07/07 00:08:36;;;;;;;2.95;1.40;;;;;;;21.26;79.66;99574.23;1701258;82;21136;-55
2021/07/07 00:11:02;;;;;;;1.42;1.10;;;;;;;21.24;79.70;99573.50;1699568;83;21069;-55
2021/07/07 00:13:29;;;;;;;2.67;1.30;;;;;;;21.25;79.70;99570.62;1701622;82;21066;-55
2021/07/07 00:15:57;;;;;;;3.72;1.10;;;;;;;21.23;79.73;99571.27;1701774;82;21075;-55
2021/07/07 00:18:24;;;;;;;4.40;1.47;;;;;;;21.24;79.76;99570.26;1704021;82;21536;-55
2021/07/07 00:20:56;;;;;;;4.90;1.40;;;;;;;21.24;79.79;99572.13;1702065;82;22182;-55
2021/07/07 00:23:26;;;;;;;6.12;1.25;;;;;;;21.25;79.84;99571.98;1702029;82;22607;-55
2021/07/07 00:25:53;;;;;;;3.67;1.20;;;;;;;21.27;79.84;99571.31;1677012;83;21472;-55
2021/07/07 00:28:20;;;;;;;2.80;1.40;;;;;;;21.28;79.95;99577.66;1702695;82;21511;-55
2021/07/07 00:30:47;;;;;;;3.00;1.35;;;;;;;21.29;80.10;99575.28;1703837;82;22084;-55
2021/07/07 00:33:14;;;;;;;1.65;1.40;;;;;;;21.29;80.27;99578.02;1705583;82;22382;-55
2021/07/07 00:35:41;;;;;;;2.08;1.40;;;;;;;21.28;80.42;99578.52;1704166;82;21848;-55
2021/07/07 00:38:08;;;;;;;5.58;1.75;;;;;;;21.27;80.52;99580.89;1704419;82;20903;-53
2021/07/07 00:40:36;;;;;;;1.40;1.30;;;;;;;21.29;80.55;99584.36;1706879;82;20986;-53
2021/07/07 00:43:03;;;;;;;4.97;2.08;;;;;;;21.28;80.58;99589.97;1705265;82;20954;-52
2021/07/07 00:45:29;;;;;;;1.95;1.20;;;;;;;21.30;80.65;99587.96;1704585;82;21421;-53
2021/07/07 00:47:55;;;;;;;4.30;1.50;;;;;;;21.31;80.70;99582.84;1705828;82;22271;-53
2021/07/07 00:50:23;;;;;;;2.20;2.10;;;;;;;21.32;80.70;99581.34;1706781;82;22070;-53
2021/07/07 00:52:49;;;;;;;3.83;1.95;;;;;;;21.33;80.72;99580.33;1707912;82;21427;-52
2021/07/07 00:55:16;;;;;;;2.00;1.82;;;;;;;21.35;80.70;99582.93;1636590;85;21449;-52
2021/07/07 00:57:46;;;;;;;2.08;1.90;;;;;;;21.36;80.75;99585.50;1705338;82;21318;-52
2021/07/07 01:00:18;;;;;;;3.72;2.22;;;;;;;21.38;80.76;99584.85;1703197;81;21500;-54
2021/07/07 01:02:45;;;;;;;2.62;2.40;;;;;;;21.41;80.71;99593.29;1733413;80;21129;-55
2021/07/07 01:05:13;;;;;;;3.08;2.80;;;;;;;21.42;80.70;99581.33;1732426;81;21107;-55
2021/07/07 01:07:40;;;;;;;3.58;2.00;;;;;;;21.43;80.66;99585.30;1733173;80;22555;-55
2021/07/07 01:10:10;;;;;;;2.77;2.58;;;;;;;21.44;80.61;99581.52;1734960;80;21504;-55
2021/07/07 01:12:36;;;;;;;2.50;2.33;;;;;;;21.44;80.61;99582.89;1734967;80;21507;-55
2021/07/07 01:15:06;;;;;;;2.35;2.25;;;;;;;21.45;80.59;99583.75;1737752;80;21049;-55
2021/07/07 01:17:34;;;;;;;2.55;2.12;;;;;;;21.45;80.62;99592.83;1731887;80;21424;-55
2021/07/07 01:20:03;;;;;;;2.47;2.08;;;;;;;21.46;80.61;99584.12;1734122;81;21140;-55
2021/07/07 01:22:30;;;;;;;1.67;1.57;;;;;;;21.47;80.52;99588.59;1733359;80;21213;-54
2021/07/07 01:24:57;;;;;;;3.72;2.65;;;;;;;21.45;80.50;99588.73;1735404;81;20917;-54
2021/07/07 01:27:25;;;;;;;2.70;2.50;;;;;;;21.45;80.53;99601.55;1733276;81;21286;-54
2021/07/07 01:29:53;;;;;;;3.35;3.05;;;;;;;21.46;80.52;99600.55;1732756;80;21100;-54
2021/07/07 01:32:19;;;;;;;3.00;2.47;;;;;;;21.46;80.49;99597.30;1736384;80;20929;-54
2021/07/07 01:34:46;;;;;;;2.52;2.02;;;;;;;21.45;80.45;99602.42;1732577;81;21108;-53
2021/07/07 01:37:12;;;;;;;1.90;1.80;;;;;;;21.44;80.47;99596.58;1731446;81;21070;-55
2021/07/07 01:39:38;;;;;;;14.35;2.70;;;;;;;21.45;80.44;99596.08;1733783;80;21040;-53
2021/07/07 01:42:06;;;;;;;5.50;2.05;;;;;;;21.43;80.42;99596.75;1732867;80;21114;-55
2021/07/07 01:44:34;;;;;;;2.00;1.80;;;;;;;21.42;80.46;99605.97;1732112;80;21161;-55
2021/07/07 01:47:02;;;;;;;4.40;1.92;;;;;;;21.42;80.53;99601.87;1695666;82;22106;-54
2021/07/07 01:49:29;;;;;;;2.72;1.52;;;;;;;21.43;80.55;99605.83;1732244;80;21065;-54
2021/07/07 01:51:55;;;;;;;2.85;1.65;;;;;;;21.43;80.46;99607.70;1694296;82;21122;-55
2021/07/07 01:54:22;;;;;;;3.00;1.50;;;;;;;21.41;80.47;99602.88;1734685;80;21084;-54
2021/07/07 01:56:49;;;;;;;3.00;1.65;;;;;;;21.41;80.48;99612.45;1732523;80;21066;-55
2021/07/07 01:59:16;;;;;;;6.75;1.20;;;;;;;21.40;80.55;99598.41;1733951;80;22352;-54
2021/07/07 02:01:42;;;;;;;3.25;2.20;;;;;;;21.39;80.62;99611.73;1732668;80;21586;-55
2021/07/07 02:04:09;;;;;;;3.25;2.22;;;;;;;21.39;80.73;99612.59;1734827;81;21124;-54
2021/07/07 02:06:35;;;;;;;3.58;2.00;;;;;;;21.39;80.86;99613.09;1695742;82;21030;-54
2021/07/07 02:09:05;;;;;;;3.00;1.85;;;;;;;21.38;80.93;99615.47;1737785;80;20923;-54
2021/07/07 02:11:33;;;;;;;2.65;2.15;;;;;;;21.38;81.03;99619.08;1699760;82;21434;-54
2021/07/07 02:14:00;;;;;;;2.55;2.10;;;;;;;21.38;81.06;99618.21;1735908;81;20883;-55
2021/07/07 02:16:26;;;;;;;3.80;2.37;;;;;;;21.38;81.06;99620.95;1736893;80;21005;-55
2021/07/07 02:18:53;;;;;;;6.83;2.27;;;;;;;21.38;80.99;99619.58;1696291;82;21050;-54
2021/07/07 02:21:20;;;;;;;2.70;2.27;;;;;;;21.37;80.93;99623.33;1736773;80;21134;-53
2021/07/07 02:23:47;;;;;;;5.05;2.75;;;;;;;21.38;80.83;99626.42;1734050;80;21190;-54
2021/07/07 02:26:15;;;;;;;3.02;2.25;;;;;;;21.38;80.69;99627.29;1734915;81;21075;-53
2021/07/07 02:28:41;;;;;;;3.45;2.42;;;;;;;21.39;80.58;99626.79;1696413;82;21102;-54
2021/07/07 02:31:07;;;;;;;3.27;2.60;;;;;;;21.40;80.38;99633.49;1733397;81;21025;-55
2021/07/07 02:33:35;;;;;;;4.67;2.37;;;;;;;21.41;80.29;99635.73;1735039;80;21096;-55
2021/07/07 02:36:01;;;;;;;2.40;2.30;;;;;;;21.40;80.25;99632.63;1733828;80;21243;-53
2021/07/07 02:38:29;;;;;;;2.22;2.02;;;;;;;21.40;80.19;99629.89;1733062;80;21082;-55
2021/07/07 02:40:56;;;;;;;1.95;1.52;;;;;;;21.41;80.10;99631.62;1736406;80;20926;-54
2021/07/07 02:43:22;;;;;;;3.87;2.60;;;;;;;21.43;80.29;99638.69;1738307;80;21058;-54
2021/07/07 02:45:48;;;;;;;4.17;2.70;;;;;;;21.45;80.39;99638.52;1735258;80;21103;-54
2021/07/07 02:48:15;;;;;;;3.08;2.45;;;;;;;21.47;80.43;99642.84;1733762;81;21127;-53
2021/07/07 02:50:41;;;;;;;2.22;1.45;;;;;;;21.49;80.38;99645.45;1732711;81;21339;-55
2021/07/07 02:53:08;;;;;;;5.22;1.80;;;;;;;21.50;80.29;99650.78;1699401;82;20971;-54
2021/07/07 02:55:34;;;;;;;2.60;2.37;;;;;;;21.49;80.37;99644.95;1735260;80;21295;-54
2021/07/07 02:58:04;;;;;;;2.30;2.10;;;;;;;21.52;80.44;99650.64;1735931;80;21471;-54
2021/07/07 03:00:35;;;;;;;3.35;1.65;;;;;;;21.53;80.43;99645.00;1733827;80;21117;-54
2021/07/07 03:03:08;;;;;;;3.25;2.10;;;;;;;21.58;80.42;99649.19;1727253;81;21118;-54
2021/07/07 03:05:39;;;;;;;3.12;2.15;;;;;;;21.59;80.33;99649.05;1727289;81;21090;-54
2021/07/07 03:08:06;;;;;;;3.67;2.60;;;;;;;21.61;80.24;99651.11;1679887;83;21812;-54
2021/07/07 03:10:32;;;;;;;2.80;2.00;;;;;;;21.63;80.16;99659.19;1725807;81;21121;-54
2021/07/07 03:12:58;;;;;;;2.60;2.15;;;;;;;21.66;80.12;99661.64;1726874;81;21173;-54
2021/07/07 03:15:25;;;;;;;4.97;1.62;;;;;;;21.67;80.14;99662.88;1726791;81;21432;-54
2021/07/07 03:17:54;;;;;;;3.05;1.75;;;;;;;21.70;80.17;99667.17;1679311;83;21089;-54
2021/07/07 03:20:21;;;;;;;2.60;2.33;;;;;;;21.72;80.14;99672.00;1682986;83;21042;-54
2021/07/07 03:22:48;;;;;;;2.60;1.67;;;;;;;21.74;80.15;99670.86;1682177;83;22066;-54
2021/07/07 03:25:14;;;;;;;3.08;2.50;;;;;;;21.78;80.07;99678.26;1728652;81;21097;-55
2021/07/07 03:27:41;;;;;;;3.02;2.27;;;;;;;21.80;79.74;99674.88;1729396;81;20966;-54
2021/07/07 03:30:09;;;;;;;3.30;2.95;;;;;;;21.83;80.00;99676.83;1728821;81;21488;-53
2021/07/07 03:32:35;;;;;;;3.15;2.85;;;;;;;21.84;79.97;99671.71;1724989;81;21524;-55
2021/07/07 03:35:03;;;;;;;2.52;2.33;;;;;;;21.86;80.01;99673.77;1728175;81;20931;-55
2021/07/07 03:37:29;;;;;;;3.05;1.80;;;;;;;21.88;79.75;99680.48;1683727;83;21490;-53
2021/07/07 03:39:56;;;;;;;5.37;1.85;;;;;;;21.89;79.26;99680.34;1730107;81;20951;-53
2021/07/07 03:42:22;;;;;;;4.53;1.82;;;;;;;21.89;78.87;99683.08;1728316;81;20923;-54
2021/07/07 03:44:48;;;;;;;5.78;1.77;;;;;;;21.92;78.62;99688.78;1731733;81;20926;-54
2021/07/07 03:47:15;;;;;;;5.25;2.12;;;;;;;21.95;78.53;99684.89;1685609;83;20967;-55
2021/07/07 03:49:41;;;;;;;2.17;1.98;;;;;;;21.97;78.24;99689.69;1727999;81;21081;-55
2021/07/07 03:52:08;;;;;;;1.67;1.57;;;;;;;22.00;77.73;99694.92;1729626;81;21068;-54
2021/07/07 03:54:34;;;;;;;4.65;2.12;;;;;;;22.01;77.01;99693.91;1727328;81;20913;-53
2021/07/07 03:57:02;;;;;;;2.40;1.27;;;;;;;22.01;76.78;99700.27;1730014;81;20878;-53
2021/07/07 03:59:28;;;;;;;1.60;1.20;;;;;;;22.03;76.39;99698.75;1728050;81;20923;-52
2021/07/07 04:01:54;;;;;;;4.90;1.32;;;;;;;22.03;76.11;99689.16;1729353;80;21137;-53
2021/07/07 04:04:21;;;;;;;2.67;1.00;;;;;;;22.04;75.75;99689.48;1731371;80;21058;-54
2021/07/07 04:06:47;;;;;;;4.72;1.40;;;;;;;22.06;75.14;99688.84;1732519;80;21666;-54
2021/07/07 04:09:14;;;;;;;6.15;1.17;;;;;;;22.10;74.83;99694.40;1730714;80;21140;-55
2021/07/07 04:11:42;;;;;;;1.55;1.30;;;;;;;22.13;74.57;99695.45;1732576;80;21080;-54
2021/07/07 04:14:09;;;;;;;5.30;1.00;;;;;;;22.16;73.83;99695.16;1696508;82;21149;-55
2021/07/07 04:16:35;;;;;;;1.25;1.10;;;;;;;22.19;72.91;99704.47;1673368;82;21082;-55
2021/07/07 04:19:03;;;;;;;2.80;1.30;;;;;;;22.22;72.50;99695.42;1733831;81;21122;-54
2021/07/07 04:21:29;;;;;;;1.15;1.05;;;;;;;22.25;72.34;99701.13;1734024;80;21396;-54
2021/07/07 04:23:56;;;;;;;4.58;1.10;;;;;;;22.26;72.34;99700.98;1733102;81;21469;-56
2021/07/07 04:26:22;;;;;;;5.83;1.37;;;;;;;22.30;72.28;99700.66;1733880;80;21156;-55
2021/07/07 04:28:50;;;;;;;2.27;0.98;;;;;;;22.33;72.12;99703.98;1698562;82;21089;-54
2021/07/07 04:31:16;;;;;;;1.72;1.00;;;;;;;22.38;71.86;99713.11;1734248;80;21058;-57
2021/07/07 04:33:43;;;;;;;3.90;1.20;;;;;;;22.44;71.40;99709.80;1729532;80;21049;-53
2021/07/07 04:36:10;;;;;;;3.12;1.10;;;;;;;22.50;70.85;99711.93;1732143;80;21113;-54
2021/07/07 04:38:36;;;;;;;1.50;1.10;;;;;;;22.53;70.66;99709.76;1694381;82;22750;-54
2021/07/07 04:41:02;;;;;;;2.52;1.30;;;;;;;22.57;70.48;99709.80;1685495;83;21041;-54
2021/07/07 04:43:30;;;;;;;2.90;1.10;;;;;;;22.62;70.17;99710.23;1687537;82;21122;-56
2021/07/07 04:45:57;;;;;;;1.57;1.00;;;;;;;22.66;69.58;99712.14;1733659;81;22335;-56
2021/07/07 04:48:23;;;;;;;6.60;0.80;;;;;;;22.72;69.03;99723.00;1732158;80;21387;-54
2021/07/07 04:50:49;;;;;;;1.00;0.90;;;;;;;22.74;68.59;99722.36;1732774;80;21093;-55
2021/07/07 04:53:16;;;;;;;3.12;1.10;;;;;;;22.77;68.62;99725.70;1734272;80;21151;-56
2021/07/07 04:55:42;;;;;;;1.77;1.07;;;;;;;22.78;68.27;99727.94;1733354;80;21113;-54
2021/07/07 04:58:08;;;;;;;5.80;1.10;;;;;;;22.75;67.85;99724.12;1697075;82;22236;-56
2021/07/07 05:00:35;;;;;;;1.22;0.82;;;;;;;22.71;67.89;99722.67;1700853;82;21436;-54
2021/07/07 05:03:02;;;;;;;2.08;1.00;;;;;;;22.68;68.00;99729.83;1733339;80;21181;-55
2021/07/07 05:05:28;;;;;;;8.53;1.27;;;;;;;22.68;67.48;99734.81;1731982;80;22262;-55
2021/07/07 05:07:56;;;;;;;1.00;0.90;;;;;;;22.70;67.07;99735.53;1732285;80;21082;-55
2021/07/07 05:10:22;;;;;;;0.88;0.85;;;;;;;22.73;66.75;99734.34;1695588;82;21122;-56
2021/07/07 05:12:49;;;;;;;2.05;0.85;;;;;;;22.75;66.96;99739.21;1670458;83;21789;-55
2021/07/07 05:15:17;;;;;;;1.80;0.78;;;;;;;22.81;66.59;99741.34;1695746;82;21675;-56
2021/07/07 05:17:45;;;;;;;3.50;0.78;;;;;;;22.86;66.13;99740.39;1731799;80;20995;-56
2021/07/07 05:20:12;;;;;;;2.35;0.90;;;;;;;22.91;65.71;99744.91;1736919;80;21489;-55
2021/07/07 05:22:41;;;;;;;1.37;1.27;;;;;;;22.96;65.40;99753.56;1698015;82;21200;-56
2021/07/07 05:25:09;;;;;;;1.15;0.90;;;;;;;23.01;65.15;99761.69;1736384;80;20915;-56
2021/07/07 05:27:36;;;;;;;1.00;0.90;;;;;;;23.04;64.50;99764.64;1735879;80;21311;-56
2021/07/07 05:30:06;;;;;;;1.77;0.80;;;;;;;23.07;63.67;99762.08;1737073;80;20998;-55
2021/07/07 05:32:33;;;;;;;1.65;0.93;;;;;;;23.06;63.44;99768.07;1737139;80;20986;-54
2021/07/07 05:34:59;;;;;;;3.10;0.78;;;;;;;23.05;63.63;99763.63;1734235;80;21047;-54
2021/07/07 05:37:26;;;;;;;0.88;0.80;;;;;;;23.09;63.90;99773.78;1732694;80;21100;-56
2021/07/07 05:39:53;;;;;;;0.80;0.80;;;;;;;23.13;64.40;99767.84;1738903;80;21079;-55
2021/07/07 05:42:20;;;;;;;2.33;1.00;;;;;;;23.19;64.18;99772.71;1734870;81;21145;-54
2021/07/07 05:44:48;;;;;;;1.25;0.80;;;;;;;23.26;64.46;99775.70;1735958;81;20959;-55
2021/07/07 05:47:15;;;;;;;2.83;0.85;;;;;;;23.31;65.20;99774.20;1735854;80;21066;-56
2021/07/07 05:49:42;;;;;;;7.15;0.75;;;;;;;23.37;64.78;99782.36;1732125;80;21085;-55
2021/07/07 05:52:09;;;;;;;1.32;0.70;;;;;;;23.40;63.55;99785.64;1737977;80;21472;-56
2021/07/07 05:54:36;;;;;;;3.22;0.90;;;;;;;23.40;61.87;99784.27;1695846;82;21039;-56
2021/07/07 05:57:03;;;;;;;3.95;0.72;;;;;;;23.42;61.69;99781.88;1732978;81;21050;-56
2021/07/07 05:59:29;;;;;;;1.70;0.78;;;;;;;23.44;61.50;99785.34;1737856;80;20910;-57
2021/07/07 06:01:56;;;;;;;1.32;0.70;;;;;;;23.41;60.15;99787.87;1736891;81;21015;-57
2021/07/07 06:04:22;;;;;;;1.25;0.72;;;;;;;23.40;60.30;99789.77;1736802;80;22399;-56
2021/07/07 06:06:49;;;;;;;2.22;0.78;;;;;;;23.42;59.93;99788.23;1734310;80;21049;-55
2021/07/07 06:09:15;;;;;;;1.57;0.70;;;;;;;23.46;60.59;99795.67;1733858;81;21042;-53
2021/07/07 06:11:43;;;;;;;1.35;0.60;;;;;;;23.50;59.91;99791.11;1734750;81;21388;-56
2021/07/07 06:14:09;;;;;;;1.07;0.60;;;;;;;23.53;58.91;99792.69;1735590;80;21457;-55
2021/07/07 06:16:38;;;;;;;2.27;0.60;;;;;;;23.54;58.31;99788.42;1736643;80;21737;-57
2021/07/07 06:19:05;;;;;;;2.35;0.50;;;;;;;23.55;58.29;99794.78;1736534;80;21641;-55
2021/07/07 06:21:31;;;;;;;3.00;0.65;;;;;;;23.59;57.87;99798.92;1737698;80;20961;-56
2021/07/07 06:23:58;;;;;;;2.45;0.60;;;;;;;23.61;57.60;99798.27;1737772;81;20919;-56
2021/07/07 06:26:28;;;;;;;0.90;0.60;;;;;;;23.64;57.64;99797.45;1718775;81;20894;-56
2021/07/07 06:28:53;;;;;;;3.87;0.65;;;;;;;23.68;57.26;99803.48;1700076;82;21154;-57
2021/07/07 06:31:19;;;;;;;1.27;0.60;;;;;;;23.71;57.94;99802.68;1736643;80;21011;-56
2021/07/07 06:33:45;;;;;;;2.05;0.53;;;;;;;23.76;57.75;99804.94;1735713;80;20947;-56
2021/07/07 06:36:12;;;;;;;4.03;0.70;;;;;;;23.83;57.69;99801.91;1735260;80;20944;-56
2021/07/07 06:38:39;;;;;;;0.95;0.50;;;;;;;23.90;56.32;99813.17;1737695;80;20968;-56
2021/07/07 06:41:05;;;;;;;0.90;0.50;;;;;;;23.96;56.22;99811.16;1736227;80;21416;-56
2021/07/07 06:43:33;;;;;;;0.60;0.60;;;;;;;24.03;56.90;99816.38;1737461;80;20971;-56
2021/07/07 06:45:59;;;;;;;2.05;0.70;;;;;;;24.11;56.47;99821.43;1735882;81;20998;-53
2021/07/07 06:48:25;;;;;;;3.70;0.60;;;;;;;24.19;55.68;99822.52;1737524;81;20919;-55
2021/07/07 06:50:53;;;;;;;3.30;0.70;;;;;;;24.19;55.71;99821.14;1737152;80;21326;-56
2021/07/07 06:53:23;;;;;;;3.25;0.70;;;;;;;24.20;56.82;99823.73;1732704;80;21512;-56
2021/07/07 06:55:48;;;;;;;0.78;0.55;;;;;;;24.24;57.11;99814.20;1735925;80;21108;-55
2021/07/07 06:58:15;;;;;;;0.68;0.50;;;;;;;24.31;57.42;99821.29;1733430;80;21419;-56
2021/07/07 07:00:41;;;;;;;1.92;0.55;;;;;;;24.36;56.73;99814.27;1736146;80;21469;-54
2021/07/07 07:03:08;;;;;;;1.75;0.40;;;;;;;24.42;54.85;99824.63;1737696;80;21121;-55
2021/07/07 07:05:34;;;;;;;4.22;0.50;;;;;;;24.47;52.85;99817.28;1739096;81;21517;-55
2021/07/07 07:08:02;;;;;;;1.62;0.50;;;;;;;24.50;52.22;99812.81;1737123;80;21087;-54
2021/07/07 07:10:29;;;;;;;0.82;0.40;;;;;;;24.53;52.39;99818.01;1737616;80;21730;-56
2021/07/07 07:12:55;;;;;;;0.50;0.40;;;;;;;24.57;51.74;99819.94;1739498;80;21458;-57
2021/07/07 07:15:22;;;;;;;0.60;0.50;;;;;;;24.61;51.21;99820.81;1739219;80;21105;-57
2021/07/07 07:17:49;;;;;;;1.00;0.50;;;;;;;24.64;51.17;99823.25;1700753;82;21569;-56
2021/07/07 07:20:16;;;;;;;0.55;0.45;;;;;;;24.68;51.90;99820.51;1736545;80;21081;-54
2021/07/07 07:22:43;;;;;;;1.37;0.45;;;;;;;24.74;51.03;99823.15;1739341;80;21159;-55
2021/07/07 07:25:11;;;;;;;0.55;0.50;;;;;;;24.78;51.59;99829.52;1740075;80;21113;-56
2021/07/07 07:27:37;;;;;;;1.22;0.40;;;;;;;24.81;50.30;99815.95;1738974;80;21129;-55
2021/07/07 07:30:06;;;;;;;0.53;0.40;;;;;;;24.86;50.96;99814.94;1736769;80;21201;-57
2021/07/07 07:32:32;;;;;;;0.70;0.50;;;;;;;24.90;50.71;99813.60;1739513;80;21100;-54
2021/07/07 07:34:58;;;;;;;1.25;0.50;;;;;;;24.95;50.00;99817.26;1700048;82;21164;-56
2021/07/07 07:37:35;;;;;;;2.58;0.85;;;;;;;24.95;49.91;99818.13;1738969;80;21054;-56
2021/07/07 07:39:56;;;;;;;0.98;0.50;;;;;;;24.92;50.04;99816.23;1743042;80;21093;-56
2021/07/07 07:42:22;;;;;;;2.77;0.60;;;;;;;24.91;50.80;99815.37;1739159;80;21142;-55
2021/07/07 07:44:48;;;;;;;4.60;0.75;;;;;;;24.94;51.54;99816.91;1738101;80;21446;-55
2021/07/07 07:47:15;;;;;;;6.78;0.50;;;;;;;24.99;51.19;99821.42;1737478;80;21684;-56
2021/07/07 07:49:42;;;;;;;2.00;0.70;;;;;;;25.05;51.50;99823.52;1736766;80;21375;-56
2021/07/07 07:52:08;;;;;;;2.55;0.60;;;;;;;25.13;50.89;99829.06;1739610;80;22429;-56
2021/07/07 07:54:35;;;;;;;2.35;0.50;;;;;;;25.18;51.57;99825.28;1738023;80;21153;-58
2021/07/07 07:57:01;;;;;;;0.80;0.62;;;;;;;25.23;51.54;99822.41;1736599;80;21078;-57
2021/07/07 07:59:28;;;;;;;1.05;0.55;;;;;;;25.30;51.89;99830.86;1739956;80;21531;-57
2021/07/07 08:01:55;;;;;;;2.33;0.60;;;;;;;25.37;51.66;99820.03;1736794;80;21074;-58
2021/07/07 08:04:21;;;;;;;2.90;0.60;;;;;;;25.44;51.73;99817.81;1740455;80;21077;-54
2021/07/07 08:06:47;;;;;;;0.78;0.62;;;;;;;25.53;50.96;99825.59;1743200;80;22283;-56
2021/07/07 08:09:14;;;;;;;1.22;0.50;;;;;;;25.49;50.04;99823.70;1741559;80;21371;-54
2021/07/07 08:11:42;;;;;;;7.42;0.70;;;;;;;25.49;50.01;99829.21;1741089;80;22609;-56
2021/07/07 08:14:09;;;;;;;4.15;1.07;;;;;;;25.51;50.77;99832.67;1741174;80;21137;-54
2021/07/07 08:16:35;;;;;;;0.80;0.68;;;;;;;25.52;49.72;99824.72;1743963;80;21132;-54
2021/07/07 08:19:01;;;;;;;2.12;0.60;;;;;;;25.51;50.26;99838.19;1739423;80;21140;-57
2021/07/07 08:21:28;;;;;;;1.22;0.57;;;;;;;25.55;50.84;99835.42;1742706;80;21434;-55
2021/07/07 08:23:54;;;;;;;1.95;0.70;;;;;;;25.59;50.87;99829.97;1739822;80;21154;-56
2021/07/07 08:26:21;;;;;;;3.95;0.60;;;;;;;25.72;51.02;99836.88;1740530;80;21368;-55
2021/07/07 08:28:47;;;;;;;0.70;0.60;;;;;;;25.80;51.03;99836.38;1745180;80;21576;-56
2021/07/07 08:31:14;;;;;;;1.25;0.60;;;;;;;25.88;50.60;99835.53;1741799;80;21926;-56
2021/07/07 08:33:41;;;;;;;2.98;0.70;;;;;;;25.96;50.59;99845.19;1741435;80;22454;-56
2021/07/07 08:36:07;;;;;;;2.25;0.70;;;;;;;26.00;50.52;99840.56;1741202;80;21457;-57
2021/07/07 08:38:33;;;;;;;3.30;0.60;;;;;;;26.05;50.58;99837.79;1740936;80;21097;-57
2021/07/07 08:40:59;;;;;;;0.80;0.60;;;;;;;26.11;50.75;99836.62;1741690;80;21156;-56
2021/07/07 08:43:26;;;;;;;1.32;0.55;;;;;;;26.18;50.83;99843.17;1739525;80;21124;-56
2021/07/07 08:45:54;;;;;;;3.08;0.60;;;;;;;26.25;50.73;99841.44;1741448;80;21120;-57
2021/07/07 08:48:21;;;;;;;2.35;0.60;;;;;;;26.34;50.82;99845.09;1745095;80;21089;-57
2021/07/07 08:50:49;;;;;;;1.07;0.60;;;;;;;26.40;48.97;99838.02;1739939;80;21071;-55
2021/07/07 08:53:16;;;;;;;0.70;0.60;;;;;;;26.43;48.53;99847.34;1741635;80;21104;-55
2021/07/07 08:55:44;;;;;;;3.70;0.60;;;;;;;26.47;48.26;99848.70;1740720;80;21126;-57
2021/07/07 08:58:11;;;;;;;2.95;0.50;;;;;;;26.54;48.38;99845.61;1745040;80;21468;-56
2021/07/07 09:00:39;;;;;;;1.40;0.62;;;;;;;26.59;48.09;99846.81;1745353;80;20990;-57
2021/07/07 09:03:12;;;;;;;2.55;0.50;;;;;;;26.66;47.39;99848.34;1745167;80;21543;-56
2021/07/07 09:05:57;;;;;;;0.82;0.50;;;;;;;26.70;46.39;99855.26;1737802;80;20892;-55
2021/07/07 09:08:32;;;;;;;3.42;0.50;;;;;;;26.68;46.62;99850.42;1738807;81;21092;-56
2021/07/07 09:11:29;;;;;;;0.82;0.60;;;;;;;26.67;47.57;99855.08;1742807;80;20975;-56
2021/07/07 09:14:13;;;;;;;4.20;0.60;;;;;;;26.68;47.59;99851.80;1736083;80;20905;-56
2021/07/07 09:16:52;;;;;;;1.87;0.50;;;;;;;26.69;47.17;99852.15;1738393;80;20961;-57
2021/07/07 09:19:20;;;;;;;0.57;0.50;;;;;;;26.68;47.07;99849.05;1738881;80;20939;-55
2021/07/07 09:21:50;;;;;;;0.70;0.50;;;;;;;26.70;47.20;99859.40;1698447;82;20994;-56
2021/07/07 09:24:25;;;;;;;2.40;0.50;;;;;;;26.74;47.43;99869.05;1692598;83;20934;-57
2021/07/07 09:27:04;;;;;;;1.77;0.68;;;;;;;26.78;46.93;99869.56;1692043;83;20931;-56
2021/07/07 09:29:49;;;;;;;1.40;0.53;;;;;;;26.79;46.55;99858.35;1691205;83;21389;-56
2021/07/07 09:32:27;;;;;;;2.25;0.45;;;;;;;26.81;45.72;99867.30;1693058;83;21007;-56
2021/07/07 09:35:00;;;;;;;1.47;0.50;;;;;;;26.81;45.87;99861.78;1736873;81;20888;-56
2021/07/07 09:37:29;;;;;;;2.45;0.50;;;;;;;26.85;44.30;99871.97;1736383;81;21312;-55
2021/07/07 09:39:57;;;;;;;1.12;0.47;;;;;;;26.83;44.46;99876.80;1696902;82;21030;-57
2021/07/07 09:42:27;;;;;;;1.45;0.47;;;;;;;26.83;43.91;99874.90;1732299;81;21117;-56
2021/07/07 09:44:55;;;;;;;1.62;0.50;;;;;;;26.85;44.50;99880.25;1731060;80;21346;-55
2021/07/07 09:47:22;;;;;;;1.00;0.50;;;;;;;26.86;44.83;99881.98;1734475;81;22636;-55
2021/07/07 09:49:49;;;;;;;2.80;0.50;;;;;;;26.88;44.89;99883.51;1699320;82;21540;-56
2021/07/07 09:52:21;;;;;;;0.53;0.50;;;;;;;26.96;45.44;99888.22;1734230;81;21674;-54
2021/07/07 09:54:48;;;;;;;2.80;0.50;;;;;;;27.00;44.62;99886.81;1696617;82;21141;-56
2021/07/07 09:57:15;;;;;;;0.50;0.50;;;;;;;27.02;44.73;99892.52;1735819;81;21371;-57
2021/07/07 09:59:43;;;;;;;1.60;0.50;;;;;;;27.05;44.76;99891.31;1737166;80;21126;-56
2021/07/07 10:02:10;;;;;;;0.85;0.50;;;;;;;27.03;44.49;99888.72;1733090;80;21090;-57
2021/07/07 10:04:38;;;;;;;3.22;0.50;;;;;;;26.89;43.39;99891.28;1734188;81;21113;-57
2021/07/07 10:07:07;;;;;;;0.57;0.50;;;;;;;26.73;44.50;99897.17;1735126;80;21086;-56
2021/07/07 10:09:38;;;;;;;2.45;0.50;;;;;;;26.65;44.95;99889.41;1737227;81;21915;-56
2021/07/07 10:12:05;;;;;;;1.07;0.40;;;;;;;26.65;44.90;99893.03;1736679;80;21796;-55
2021/07/07 10:14:32;;;;;;;2.52;0.60;;;;;;;26.64;44.56;99898.20;1734279;80;21372;-55
2021/07/07 10:18:26;;;;;;;0.80;0.40;;;;;;;26.65;44.54;99901.32;1790774;78;23334;-56
2021/07/07 10:20:52;;;;;;;6.20;0.50;;;;;;;26.61;44.73;99897.71;1768465;79;21124;-56
2021/07/07 10:23:19;;;;;;;2.90;0.50;;;;;;;26.65;45.13;99901.32;1771624;79;23069;-57
2021/07/07 10:25:45;;;;;;;4.50;0.40;;;;;;;26.72;45.50;99903.73;1771007;79;21401;-56
2021/07/07 10:28:13;;;;;;;0.75;0.50;;;;;;;26.80;44.63;99901.47;1770021;79;21032;-55
2021/07/07 10:30:57;;;;;;;3.33;0.50;;;;;;;26.85;44.03;99898.20;1739781;81;21413;-56
2021/07/07 10:33:28;;;;;;;0.65;0.45;;;;;;;26.88;45.36;99902.84;1715934;81;20918;-54
2021/07/07 10:36:25;;;;;;;1.32;0.50;;;;;;;26.96;44.54;99902.89;1707980;81;21147;-57
2021/07/07 10:39:03;;;;;;;0.78;0.40;;;;;;;27.01;44.83;99907.88;1708700;81;21844;-55
2021/07/07 10:41:49;;;;;;;0.70;0.40;;;;;;;27.08;44.58;99908.89;1712046;81;21142;-56
2021/07/07 10:44:38;;;;;;;2.67;0.40;;;;;;;27.13;45.10;99912.53;1714444;83;21213;-56
2021/07/07 10:47:11;;;;;;;1.52;0.53;;;;;;;27.21;44.23;99913.89;1713698;83;21101;-56
2021/07/07 10:49:54;;;;;;;;;;;;;;;27.24;44.57;99905.22;1740725;81;21144;-56
2021/07/07 10:52:40;;;;;;;2.60;0.53;;;;;;;27.28;44.58;99918.53;1711537;83;20270;-58
2021/07/07 10:55:09;;;;;;;1.82;0.60;;;;;;;27.30;44.16;99914.21;1739038;80;21020;-57
2021/07/07 10:57:36;;;;;;;1.52;0.60;;;;;;;27.33;44.70;99908.30;1714984;83;20978;-57
2021/07/07 11:00:35;;;;;;;1.30;0.60;;;;;;;27.34;44.62;99916.42;1715866;83;20961;-57
2021/07/07 11:03:42;;;;;;;0.70;0.47;;;;;;;27.35;44.85;99911.77;1727446;81;21136;-56
2021/07/07 11:06:27;;;;;;;1.47;0.50;;;;;;;27.39;44.79;99913.15;1727555;81;21511;-58
2021/07/07 11:09:14;;;;;;;2.70;0.50;;;;;;;27.41;44.36;99904.13;1734177;81;21081;-56
2021/07/07 11:11:45;;;;;;;0.75;0.50;;;;;;;27.44;44.39;99899.64;1715399;81;21089;-57
2021/07/07 11:14:27;;;;;;;1.92;0.60;;;;;;;27.48;44.97;99903.23;1714311;81;21062;-54
2021/07/07 11:16:56;;;;;;;0.55;0.50;;;;;;;27.54;45.06;99897.56;1704420;81;21118;-56
2021/07/07 11:19:43;;;;;;;0.50;0.50;;;;;;;27.60;43.96;99905.14;1702373;83;20887;-56
2021/07/07 11:22:10;;;;;;;0.60;0.50;;;;;;;27.60;44.92;99903.75;1702915;83;20944;-56
2021/07/07 11:24:37;;;;;;;6.42;0.50;;;;;;;27.61;44.75;99896.32;1697851;83;21466;-57
2021/07/07 11:27:05;;;;;;;3.17;0.50;;;;;;;27.64;44.48;99901.50;1699335;82;20972;-57
2021/07/07 11:29:32;;;;;;;0.75;0.57;;;;;;;27.69;44.72;99903.20;1695778;82;21111;-57
2021/07/07 11:31:59;;;;;;;2.62;0.50;;;;;;;27.69;44.78;99900.43;1696772;83;20958;-55
2021/07/07 11:34:25;;;;;;;3.33;0.50;;;;;;;27.73;44.81;99912.32;1700952;82;20903;-57
2021/07/07 11:36:53;;;;;;;3.40;0.57;;;;;;;27.72;44.57;99907.86;1731160;81;20943;-57
2021/07/07 11:39:21;;;;;;;4.70;0.50;;;;;;;27.70;45.06;99907.69;1761827;80;21184;-56
2021/07/07 11:42:06;;;;;;;4.92;0.50;;;;;;;27.68;44.02;99913.39;1766934;80;22851;-54